sensor_id;sensor_type;location;lat;lon;timestamp;P1;durP1;ratioP1;P2;durP2;ratioP2
64537;SDS011;50921;53.132;18.042;2022-07-15T00:01:35;5.55;;;1.72;;
64537;SDS011;50921;53.132;18.042;2022-07-15T00:16:36;3.90;;;1.55;;
64537;SDS011;50921;53.132;18.042;2022-07-15T00:31:36;5.77;;;1.50;;
64537;SDS011;50921;53.132;18.042;2022-07-15T00:46:37;2.72;;;1.60;;
64537;SDS011;50921;53.132;18.042;2022-07-15T01:01:39;4.70;;;1.42;;
64537;SDS011;50921;53.132;18.042;2022-07-15T01:16:44;4.05;;;1.20;;
64537;SDS011;50921;53.132;18.042;2022-07-15T01:31:45;3.37;;;0.98;;
64537;SDS011;50921;53.132;18.042;2022-07-15T01:46:47;2.22;;;0.70;;
64537;SDS011;50921;53.132;18.042;2022-07-15T02:01:49;2.60;;;0.70;;
64537;SDS011;50921;53.132;18.042;2022-07-15T02:16:54;2.72;;;1.00;;
64537;SDS011;50921;53.132;18.042;2022-07-15T02:31:58;3.33;;;0.90;;
64537;SDS011;50921;53.132;18.042;2022-07-15T02:46:59;3.52;;;0.68;;
64537;SDS011;50921;53.132;18.042;2022-07-15T03:02:02;3.92;;;0.93;;
64537;SDS011;50921;53.132;18.042;2022-07-15T03:17:03;3.33;;;1.22;;
64537;SDS011;50921;53.132;18.042;2022-07-15T03:32:04;2.72;;;0.78;;
64537;SDS011;50921;53.132;18.042;2022-07-15T04:02:09;3.23;;;0.70;;
64537;SDS011;50921;53.132;18.042;2022-07-15T04:17:09;3.20;;;0.82;;
64537;SDS011;50921;53.132;18.042;2022-07-15T04:32:12;3.07;;;1.00;;
64537;SDS011;50921;53.132;18.042;2022-07-15T04:47:15;5.20;;;1.07;;
64537;SDS011;50921;53.132;18.042;2022-07-15T05:02:18;4.67;;;1.25;;
64537;SDS011;50921;53.132;18.042;2022-07-15T05:17:21;4.87;;;1.40;;
64537;SDS011;50921;53.132;18.042;2022-07-15T05:32:22;2.90;;;1.07;;
64537;SDS011;50921;53.132;18.042;2022-07-15T05:47:23;5.87;;;1.40;;
64537;SDS011;50921;53.132;18.042;2022-07-15T06:02:24;4.37;;;1.15;;
64537;SDS011;50921;53.132;18.042;2022-07-15T06:17:26;3.77;;;1.13;;
64537;SDS011;50921;53.132;18.042;2022-07-15T06:32:28;3.55;;;0.95;;
64537;SDS011;50921;53.132;18.042;2022-07-15T06:47:29;3.77;;;0.90;;
64537;SDS011;50921;53.132;18.042;2022-07-15T07:02:34;5.23;;;1.00;;
64537;SDS011;50921;53.132;18.042;2022-07-15T07:17:36;4.37;;;0.93;;
64537;SDS011;50921;53.132;18.042;2022-07-15T07:32:37;4.58;;;1.00;;
64537;SDS011;50921;53.132;18.042;2022-07-15T07:47:38;2.97;;;1.00;;
64537;SDS011;50921;53.132;18.042;2022-07-15T08:17:39;4.50;;;1.00;;
64537;SDS011;50921;53.132;18.042;2022-07-15T08:32:40;4.05;;;0.80;;
64537;SDS011;50921;53.132;18.042;2022-07-15T08:47:44;4.50;;;0.70;;
64537;SDS011;50921;53.132;18.042;2022-07-15T09:02:45;3.97;;;0.60;;
64537;SDS011;50921;53.132;18.042;2022-07-15T09:32:47;3.95;;;0.98;;
64537;SDS011;50921;53.132;18.042;2022-07-15T09:47:49;3.62;;;0.70;;
64537;SDS011;50921;53.132;18.042;2022-07-15T10:02:55;3.52;;;0.40;;
64537;SDS011;50921;53.132;18.042;2022-07-15T10:33:18;2.87;;;0.70;;
64537;SDS011;50921;53.132;18.042;2022-07-15T10:48:27;4.67;;;0.83;;
64537;SDS011;50921;53.132;18.042;2022-07-15T11:03:31;3.57;;;0.73;;
64537;SDS011;50921;53.132;18.042;2022-07-15T11:18:44;3.63;;;0.73;;
64537;SDS011;50921;53.132;18.042;2022-07-15T11:33:46;4.42;;;0.82;;
64537;SDS011;50921;53.132;18.042;2022-07-15T11:48:46;3.27;;;1.10;;
64537;SDS011;50921;53.132;18.042;2022-07-15T12:03:51;4.22;;;0.85;;
64537;SDS011;50921;53.132;18.042;2022-07-15T12:18:55;3.90;;;0.90;;
64537;SDS011;50921;53.132;18.042;2022-07-15T12:33:59;4.70;;;0.95;;
64537;SDS011;50921;53.132;18.042;2022-07-15T12:49:00;3.00;;;0.70;;
64537;SDS011;50921;53.132;18.042;2022-07-15T13:04:01;3.63;;;0.67;;
64537;SDS011;50921;53.132;18.042;2022-07-15T13:19:03;4.47;;;0.70;;
64537;SDS011;50921;53.132;18.042;2022-07-15T13:34:04;4.47;;;0.70;;
64537;SDS011;50921;53.132;18.042;2022-07-15T13:49:05;3.47;;;0.67;;
64537;SDS011;50921;53.132;18.042;2022-07-15T14:04:06;3.60;;;0.90;;
64537;SDS011;50921;53.132;18.042;2022-07-15T14:19:07;3.72;;;0.80;;
64537;SDS011;50921;53.132;18.042;2022-07-15T14:49:09;3.75;;;0.90;;
64537;SDS011;50921;53.132;18.042;2022-07-15T15:04:09;5.95;;;0.70;;
64537;SDS011;50921;53.132;18.042;2022-07-15T15:34:11;2.47;;;0.60;;
64537;SDS011;50921;53.132;18.042;2022-07-15T15:49:12;2.75;;;0.70;;
64537;SDS011;50921;53.132;18.042;2022-07-15T16:04:14;3.37;;;0.70;;
64537;SDS011;50921;53.132;18.042;2022-07-15T16:19:15;2.95;;;0.70;;
64537;SDS011;50921;53.132;18.042;2022-07-15T16:34:16;3.50;;;0.60;;
64537;SDS011;50921;53.132;18.042;2022-07-15T16:49:16;3.10;;;0.60;;
64537;SDS011;50921;53.132;18.042;2022-07-15T17:04:18;3.65;;;0.60;;
64537;SDS011;50921;53.132;18.042;2022-07-15T17:19:19;2.67;;;0.75;;
64537;SDS011;50921;53.132;18.042;2022-07-15T17:34:20;3.20;;;0.70;;
64537;SDS011;50921;53.132;18.042;2022-07-15T17:49:21;2.47;;;0.60;;
64537;SDS011;50921;53.132;18.042;2022-07-15T18:04:22;2.80;;;0.60;;
64537;SDS011;50921;53.132;18.042;2022-07-15T18:34:28;3.90;;;0.80;;
64537;SDS011;50921;53.132;18.042;2022-07-15T18:49:29;4.87;;;0.80;;
64537;SDS011;50921;53.132;18.042;2022-07-15T19:04:29;3.80;;;0.90;;
64537;SDS011;50921;53.132;18.042;2022-07-15T19:19:32;3.27;;;1.02;;
64537;SDS011;50921;53.132;18.042;2022-07-15T19:34:33;4.42;;;0.75;;
64537;SDS011;50921;53.132;18.042;2022-07-15T19:49:34;3.95;;;1.02;;
64537;SDS011;50921;53.132;18.042;2022-07-15T20:04:35;5.45;;;1.10;;
64537;SDS011;50921;53.132;18.042;2022-07-15T20:19:36;4.92;;;1.20;;
64537;SDS011;50921;53.132;18.042;2022-07-15T20:34:36;5.28;;;0.95;;
64537;SDS011;50921;53.132;18.042;2022-07-15T20:49:39;4.28;;;1.10;;
64537;SDS011;50921;53.132;18.042;2022-07-15T21:04:40;4.17;;;1.30;;
64537;SDS011;50921;53.132;18.042;2022-07-15T21:19:41;4.67;;;1.40;;
64537;SDS011;50921;53.132;18.042;2022-07-15T21:34:42;3.77;;;1.55;;
64537;SDS011;50921;53.132;18.042;2022-07-15T21:49:42;4.97;;;1.42;;
64537;SDS011;50921;53.132;18.042;2022-07-15T22:04:44;4.92;;;1.32;;
64537;SDS011;50921;53.132;18.042;2022-07-15T22:19:45;4.15;;;1.67;;
64537;SDS011;50921;53.132;18.042;2022-07-15T22:34:46;4.15;;;0.95;;
64537;SDS011;50921;53.132;18.042;2022-07-15T22:49:48;4.92;;;0.90;;
64537;SDS011;50921;53.132;18.042;2022-07-15T23:04:48;3.17;;;1.00;;
64537;SDS011;50921;53.132;18.042;2022-07-15T23:19:51;4.65;;;1.50;;
64537;SDS011;50921;53.132;18.042;2022-07-15T23:34:52;4.20;;;1.27;;
64537;SDS011;50921;53.132;18.042;2022-07-15T23:49:52;6.30;;;1.37;;
